Time;durP1;ratioP1;P1;durP2;ratioP2;P2;SDS_P1;SDS_P2;PMS_P1;PMS_P2;Temp;Humidity;BMP_temperature;BMP_pressure;BME280_temperature;BME280_humidity;BME280_pressure;Samples;Min_cycle;Max_cycle;Signal;HPM_P1;HPM_P2
2021/04/15 00:02:04;;;;;;;3.92;1.20;;;;;;;1.25;73.86;101911.88;3554866;40;20073;-53
2021/04/15 00:04:31;;;;;;;4.63;1.52;;;;;;;1.09;74.54;101913.88;3554726;40;20070;-52
2021/04/15 00:06:57;;;;;;;3.85;1.38;;;;;;;1.10;74.91;101921.56;3555020;40;20065;-48
2021/04/15 00:09:25;;;;;;;2.53;1.10;;;;;;;1.20;75.13;101919.06;3554959;40;20070;-51
2021/04/15 00:11:52;;;;;;;2.47;1.15;;;;;;;0.95;75.07;101916.13;3553984;40;20042;-51
2021/04/15 00:14:21;;;;;;;1.48;1.08;;;;;;;1.31;73.81;101914.03;3554401;40;20130;-51
2021/04/15 00:16:49;;;;;;;1.80;1.33;;;;;;;1.00;74.66;101924.06;3555375;40;20062;-49
2021/04/15 00:19:18;;;;;;;3.90;1.30;;;;;;;0.94;75.93;101916.88;3554765;40;20151;-52
2021/04/15 00:21:48;;;;;;;2.05;1.02;;;;;;;0.90;76.20;101911.47;3555223;40;20057;-48
2021/04/15 00:24:16;;;;;;;2.30;1.20;;;;;;;1.05;76.00;101920.28;3558691;40;20058;-48
2021/04/15 00:26:42;;;;;;;2.05;1.00;;;;;;;0.90;76.42;101911.47;3554912;40;20375;-52
2021/04/15 00:29:09;;;;;;;2.65;1.20;;;;;;;0.83;76.65;101906.63;3554972;40;20090;-51
2021/04/15 00:31:36;;;;;;;2.40;1.15;;;;;;;0.93;76.53;101910.09;3554622;40;20384;-53
2021/04/15 00:34:02;;;;;;;1.90;0.93;;;;;;;0.93;75.71;101909.19;3554982;40;20190;-49
2021/04/15 00:36:29;;;;;;;3.75;1.50;;;;;;;0.95;76.16;101915.25;3554312;40;20064;-52
2021/04/15 00:38:56;;;;;;;3.00;1.30;;;;;;;0.82;76.76;101904.88;3554881;40;20085;-48
2021/04/15 00:41:24;;;;;;;2.70;1.10;;;;;;;0.97;75.88;101908.69;3554165;40;20046;-52
2021/04/15 00:43:51;;;;;;;1.60;1.02;;;;;;;1.02;75.70;101909.97;3554768;40;20069;-50
2021/04/15 00:46:52;;;;;;;2.72;1.50;;;;;;;1.10;75.53;101906.41;3555244;40;20073;-53
2021/04/15 00:49:26;;;;;;;2.70;1.15;;;;;;;1.05;75.26;101912.72;3554321;40;20079;-53
2021/04/15 00:51:59;;;;;;;1.88;1.58;;;;;;;0.85;75.91;101906.03;3554643;40;20116;-51
2021/04/15 00:54:35;;;;;;;1.63;1.13;;;;;;;0.89;75.57;101909.69;3555891;40;20428;-53
2021/04/15 00:57:04;;;;;;;2.20;1.35;;;;;;;0.79;76.43;101908.03;3557830;40;20065;-49
2021/04/15 00:59:31;;;;;;;2.00;1.45;;;;;;;0.80;76.47;101906.41;3555528;40;20058;-51
2021/04/15 01:01:58;;;;;;;2.80;1.17;;;;;;;0.78;76.33;101906.25;3554104;40;20066;-52
2021/04/15 01:04:25;;;;;;;2.63;1.30;;;;;;;0.81;76.47;101911.56;3553881;40;20466;-52
2021/04/15 01:06:52;;;;;;;3.53;1.50;;;;;;;0.76;76.32;101912.81;3554534;40;20072;-50
2021/04/15 01:09:19;;;;;;;2.53;1.13;;;;;;;0.69;76.68;101908.00;3553976;40;20080;-55
2021/04/15 01:12:18;;;;;;;2.70;1.42;;;;;;;0.85;76.49;101911.06;3554770;40;20085;-48
2021/04/15 01:14:58;;;;;;;2.67;1.42;;;;;;;0.87;76.73;101901.97;3553178;40;20486;-48
2021/04/15 01:17:39;;;;;;;2.05;1.42;;;;;;;0.76;77.04;101901.09;3551396;40;20363;-53
2021/04/15 01:20:42;;;;;;;2.60;1.30;;;;;;;0.87;76.76;101908.66;3554224;40;20055;-50
2021/04/15 01:23:20;;;;;;;1.88;1.00;;;;;;;0.63;77.39;101903.31;3553747;40;20224;-55
2021/04/15 01:25:53;;;;;;;3.60;1.50;;;;;;;0.67;77.80;101910.41;3554889;40;20069;-49
2021/04/15 01:28:31;;;;;;;3.30;1.55;;;;;;;0.62;78.10;101900.69;3554117;40;20591;-52
2021/04/15 01:31:06;;;;;;;3.72;1.20;;;;;;;0.62;77.96;101898.16;3554219;40;20094;-54
2021/04/15 01:33:40;;;;;;;3.08;1.75;;;;;;;0.73;77.89;101894.91;3554044;40;20058;-53
2021/04/15 01:36:23;;;;;;;1.55;1.35;;;;;;;0.66;78.01;101890.13;3554543;40;20049;-55
2021/04/15 01:39:07;;;;;;;2.42;1.60;;;;;;;0.61;78.20;101891.38;3554188;40;20058;-54
2021/04/15 01:41:40;;;;;;;2.67;1.35;;;;;;;0.62;78.77;101888.09;3553999;40;20066;-48
2021/04/15 01:44:18;;;;;;;1.63;1.23;;;;;;;0.59;79.08;101892.84;3554272;40;20061;-51
2021/04/15 01:46:46;;;;;;;2.95;1.63;;;;;;;0.57;79.26;101891.84;3554390;40;20317;-54
2021/04/15 01:49:18;;;;;;;3.88;1.55;;;;;;;0.45;79.84;101891.69;3550360;40;20064;-49
2021/04/15 01:51:48;;;;;;;3.55;1.45;;;;;;;0.51;79.92;101892.22;3554036;40;20113;-54
2021/04/15 01:54:36;;;;;;;3.55;1.70;;;;;;;0.42;80.28;101891.44;3550577;40;20060;-50
2021/04/15 01:57:20;;;;;;;2.28;2.08;;;;;;;0.39;80.44;101889.53;3554293;40;20061;-48
2021/04/15 02:00:01;;;;;;;2.03;1.38;;;;;;;0.41;80.68;101892.16;3554459;40;20053;-50
2021/04/15 02:02:52;;;;;;;2.67;1.40;;;;;;;0.25;80.88;101895.91;3553693;40;20057;-52
2021/04/15 02:05:26;;;;;;;2.97;1.67;;;;;;;0.37;80.45;101898.59;3553649;40;20042;-49
2021/04/15 02:08:06;;;;;;;1.85;1.48;;;;;;;0.47;80.09;101891.06;3553949;40;20061;-48
2021/04/15 02:10:35;;;;;;;4.30;1.67;;;;;;;0.33;79.96;101890.66;3553549;40;20683;-51
2021/04/15 02:13:06;;;;;;;2.97;1.50;;;;;;;0.22;80.65;101892.22;3553852;40;20054;-50
2021/04/15 02:15:44;;;;;;;2.47;1.73;;;;;;;0.29;81.00;101896.19;3553788;40;20070;-49
2021/04/15 02:18:17;;;;;;;4.32;1.88;;;;;;;0.29;81.16;101891.13;3554062;40;20054;-49
2021/04/15 02:20:47;;;;;;;3.92;1.63;;;;;;;0.19;81.39;101886.94;3554937;40;20057;-51
2021/04/15 02:23:24;;;;;;;3.13;1.60;;;;;;;0.31;81.07;101895.53;3551756;40;20089;-49
2021/04/15 02:26:06;;;;;;;2.50;1.50;;;;;;;0.33;80.85;101898.22;3555342;40;20075;-48
2021/04/15 02:28:47;;;;;;;3.92;2.17;;;;;;;0.31;80.99;101893.03;3555196;40;20070;-50
2021/04/15 02:31:22;;;;;;;6.15;2.10;;;;;;;0.34;81.57;101897.44;3551846;40;20050;-50
2021/04/15 02:33:52;;;;;;;5.05;2.17;;;;;;;0.39;81.55;101891.16;3555617;40;20050;-51
2021/04/15 02:36:20;;;;;;;3.58;2.13;;;;;;;0.29;81.77;101886.09;3555548;40;20058;-50
2021/04/15 02:38:53;;;;;;;3.83;2.15;;;;;;;0.29;81.93;101881.94;3555565;40;20460;-49
2021/04/15 02:41:32;;;;;;;3.13;1.83;;;;;;;0.14;82.44;101884.03;3555195;40;20188;-51
2021/04/15 02:44:16;;;;;;;2.83;2.30;;;;;;;0.21;82.40;101895.50;3555427;40;20107;-53
2021/04/15 02:46:48;;;;;;;4.00;1.80;;;;;;;0.11;83.56;101885.41;3555408;40;20060;-53
2021/04/15 02:49:17;;;;;;;5.32;1.67;;;;;;;0.13;83.71;101889.78;3552079;40;20662;-50
2021/04/15 02:52:02;;;;;;;2.05;1.63;;;;;;;0.15;83.45;101884.91;3555042;40;20058;-53
2021/04/15 02:54:54;;;;;;;3.58;1.77;;;;;;;0.22;83.54;101887.19;3552567;40;20061;-49
2021/04/15 02:57:27;;;;;;;3.95;2.10;;;;;;;0.20;83.88;101881.16;3555011;40;20064;-49
2021/04/15 03:00:09;;;;;;;2.42;1.92;;;;;;;0.07;84.24;101889.28;3555666;40;20078;-49
2021/04/15 03:02:41;;;;;;;3.97;2.22;;;;;;;0.10;84.11;101883.63;3554625;40;20060;-50
2021/04/15 03:05:14;;;;;;;3.53;2.30;;;;;;;0.13;83.84;101876.31;3554865;40;20109;-52
2021/04/15 03:07:43;;;;;;;3.17;2.28;;;;;;;0.04;84.54;101883.97;3554914;40;20134;-49
2021/04/15 03:10:16;;;;;;;3.63;2.25;;;;;;;0.02;85.13;101885.47;3554899;40;20106;-50
2021/04/15 03:12:52;;;;;;;6.18;2.30;;;;;;;0.18;84.53;101885.16;3554887;40;20058;-49
2021/04/15 03:15:25;;;;;;;4.30;2.60;;;;;;;0.07;84.61;101886.75;3551856;40;20050;-53
2021/04/15 03:17:56;;;;;;;5.32;2.13;;;;;;;-0.02;84.84;101885.97;3555178;40;20097;-51
2021/04/15 03:20:31;;;;;;;5.47;2.42;;;;;;;-0.02;84.93;101883.44;3555115;40;20081;-49
2021/04/15 03:23:12;;;;;;;2.65;2.30;;;;;;;0.04;85.22;101888.13;3555124;40;20062;-48
2021/04/15 03:25:40;;;;;;;4.22;1.90;;;;;;;-0.04;85.45;101883.31;3554885;40;20058;-48
2021/04/15 03:28:29;;;;;;;4.55;2.83;;;;;;;-0.04;85.63;101892.50;3555207;40;20061;-47
2021/04/15 03:31:03;;;;;;;5.10;2.13;;;;;;;-0.02;86.12;101881.81;3554998;40;20057;-51
2021/04/15 03:33:34;;;;;;;3.72;2.30;;;;;;;0.03;85.60;101873.75;3554957;40;20052;-50
2021/04/15 03:36:17;;;;;;;4.43;2.47;;;;;;;-0.07;86.08;101885.56;3555048;40;20078;-50
2021/04/15 03:38:51;;;;;;;4.93;2.67;;;;;;;0.11;85.84;101878.72;3554632;40;20061;-51
2021/04/15 03:41:27;;;;;;;3.83;2.50;;;;;;;-0.09;86.52;101882.03;3551854;40;20328;-53
2021/04/15 03:44:01;;;;;;;4.30;2.50;;;;;;;-0.16;86.94;101878.84;3555014;40;20150;-49
2021/04/15 03:46:40;;;;;;;5.45;2.55;;;;;;;-0.18;87.42;101880.34;3554752;40;20098;-51
2021/04/15 03:49:16;;;;;;;4.50;2.70;;;;;;;-0.17;87.14;101884.63;3555085;40;20064;-51
2021/04/15 03:51:48;;;;;;;4.03;3.10;;;;;;;-0.03;86.94;101882.56;3554689;40;20065;-48
2021/04/15 03:54:20;;;;;;;4.97;2.63;;;;;;;-0.12;87.33;101890.94;3551157;40;20060;-50
2021/04/15 03:56:52;;;;;;;4.95;3.15;;;;;;;-0.03;87.12;101890.13;3554786;40;20130;-53
2021/04/15 03:59:44;;;;;;;4.90;2.65;;;;;;;-0.05;87.72;101889.09;3553481;40;20058;-51
2021/04/15 04:02:35;;;;;;;6.35;2.20;;;;;;;-0.05;87.93;101886.59;3560060;40;20059;-50
2021/04/15 04:05:08;;;;;;;4.38;2.88;;;;;;;-0.01;87.51;101885.19;3556110;40;20127;-53
2021/04/15 04:07:42;;;;;;;6.97;2.97;;;;;;;0.06;88.01;101890.03;3555082;40;20069;-49
2021/04/15 04:10:22;;;;;;;8.43;2.80;;;;;;;0.02;88.16;101892.16;3554588;40;20056;-54
2021/04/15 04:12:55;;;;;;;6.22;2.97;;;;;;;-0.01;88.33;101892.75;3555192;40;20432;-51
2021/04/15 04:15:38;;;;;;;7.50;2.72;;;;;;;0.05;87.82;101898.34;3554675;40;20069;-50
2021/04/15 04:18:15;;;;;;;4.68;3.03;;;;;;;0.09;88.31;101892.78;3554892;40;20041;-49
2021/04/15 04:20:42;;;;;;;8.13;3.58;;;;;;;0.13;88.08;101891.44;3554549;40;20054;-48
2021/04/15 04:23:22;;;;;;;4.32;3.13;;;;;;;0.07;87.98;101890.91;3554138;40;20757;-51
2021/04/15 04:26:01;;;;;;;9.00;4.45;;;;;;;0.07;88.74;101900.97;3555135;40;20052;-53
2021/04/15 04:28:43;;;;;;;5.72;3.90;;;;;;;0.05;88.96;101900.88;3554704;40;20045;-50
2021/04/15 04:31:18;;;;;;;7.07;3.70;;;;;;;0.15;88.92;101903.41;3554538;40;20082;-50
2021/04/15 04:33:51;;;;;;;8.63;4.07;;;;;;;0.19;88.94;101905.47;3555097;40;20117;-50
2021/04/15 04:36:22;;;;;;;5.45;3.25;;;;;;;0.26;89.05;101901.81;3551696;40;20077;-48
2021/04/15 04:38:50;;;;;;;7.05;4.18;;;;;;;0.40;89.04;101911.44;3555092;40;20074;-50
2021/04/15 04:41:29;;;;;;;7.85;4.10;;;;;;;0.35;88.75;101911.81;3554795;40;20045;-51
2021/04/15 04:44:11;;;;;;;9.60;4.28;;;;;;;0.39;88.61;101908.81;3553973;40;20450;-50
2021/04/15 04:46:44;;;;;;;10.80;4.38;;;;;;;0.70;87.93;101918.22;3554297;40;20076;-48
2021/04/15 04:49:19;;;;;;;5.55;3.75;;;;;;;0.70;87.57;101917.34;3554074;40;20694;-50
2021/04/15 04:52:05;;;;;;;7.00;3.83;;;;;;;0.81;87.77;101921.66;3554584;40;20046;-48
2021/04/15 04:54:32;;;;;;;7.00;4.00;;;;;;;0.81;87.49;101911.56;3551256;40;20053;-49
2021/04/15 04:57:17;;;;;;;9.00;4.82;;;;;;;0.72;87.75;101921.75;3553806;40;20066;-47
2021/04/15 04:59:47;;;;;;;11.35;5.20;;;;;;;0.73;87.96;101925.16;3554557;40;20082;-50
2021/04/15 05:02:16;;;;;;;11.18;4.70;;;;;;;0.98;87.19;101923.09;3550689;40;20064;-49
2021/04/15 05:04:44;;;;;;;7.18;4.05;;;;;;;0.94;87.13;101926.09;3554015;40;20046;-49
2021/04/15 05:07:26;;;;;;;8.43;4.63;;;;;;;0.82;88.03;101923.41;3554431;40;20061;-49
2021/04/15 05:09:53;;;;;;;9.38;4.90;;;;;;;0.89;87.81;101924.81;3554562;40;20061;-51
2021/04/15 05:12:31;;;;;;;10.52;5.55;;;;;;;0.95;87.69;101918.66;3554587;40;20477;-48
2021/04/15 05:14:59;;;;;;;7.80;5.32;;;;;;;1.00;87.75;101921.56;3554917;40;20049;-53
2021/04/15 05:17:32;;;;;;;8.70;5.82;;;;;;;1.10;87.62;101926.59;3554912;40;20070;-50
2021/04/15 05:20:11;;;;;;;15.90;6.25;;;;;;;1.21;87.30;101925.00;3554539;40;20550;-49
2021/04/15 05:22:45;;;;;;;21.70;10.95;;;;;;;1.34;86.94;101927.78;3554008;40;20097;-49
2021/04/15 05:25:35;;;;;;;15.13;8.85;;;;;;;1.47;86.35;101927.13;3554919;40;20077;-50
2021/04/15 05:28:04;;;;;;;13.05;7.10;;;;;;;1.50;86.47;101925.75;3551501;40;20054;-50
2021/04/15 05:30:36;;;;;;;12.75;5.82;;;;;;;1.69;85.51;101925.59;3552234;40;20066;-52
2021/04/15 05:33:07;;;;;;;10.68;5.60;;;;;;;1.79;85.28;101933.13;3552501;40;20046;-45
2021/04/15 05:35:39;;;;;;;9.48;4.80;;;;;;;1.87;84.68;101928.72;3553622;40;20061;-46
2021/04/15 05:38:07;;;;;;;12.15;5.80;;;;;;;1.91;84.70;101924.81;3554615;40;20057;-49
2021/04/15 05:40:36;;;;;;;10.30;5.07;;;;;;;1.92;84.94;101926.56;3553756;40;20061;-47
2021/04/15 05:43:21;;;;;;;7.65;4.68;;;;;;;2.13;83.61;101929.94;3553280;40;20050;-47
2021/04/15 05:45:50;;;;;;;6.53;4.87;;;;;;;2.07;84.17;101927.78;3552256;40;20617;-51
2021/04/15 05:48:19;;;;;;;9.25;4.90;;;;;;;2.39;83.57;101922.72;3553179;40;20113;-49
2021/04/15 05:50:52;;;;;;;10.48;5.30;;;;;;;2.63;82.31;101932.97;3552919;40;20112;-47
2021/04/15 05:53:23;;;;;;;12.50;4.05;;;;;;;2.73;81.91;101926.25;3550059;40;20622;-48
2021/04/15 05:56:16;;;;;;;6.00;3.63;;;;;;;2.67;81.53;101933.34;3553024;40;20042;-50
2021/04/15 05:58:53;;;;;;;8.15;4.10;;;;;;;2.86;81.54;101929.69;3553573;40;20056;-50
2021/04/15 06:01:46;;;;;;;8.88;4.65;;;;;;;2.87;81.05;101928.97;3550868;40;20050;-48
2021/04/15 06:04:26;;;;;;;6.13;3.47;;;;;;;3.09;81.00;101937.38;3551410;40;20069;-49
2021/04/15 06:06:53;;;;;;;6.22;3.47;;;;;;;3.42;79.58;101940.69;3551554;40;20046;-49
2021/04/15 06:09:19;;;;;;;8.20;3.80;;;;;;;3.82;77.71;101930.19;3553237;40;20070;-51
2021/04/15 06:12:15;;;;;;;7.45;3.67;;;;;;;3.48;77.78;101931.91;3553615;40;20056;-48
2021/04/15 06:15:01;;;;;;;7.80;3.80;;;;;;;3.64;77.27;101940.63;3551444;40;20366;-51
2021/04/15 06:18:01;;;;;;;6.97;3.90;;;;;;;4.20;75.92;101938.78;3551400;40;20060;-50
2021/04/15 06:20:35;;;;;;;6.28;3.67;;;;;;;4.13;74.91;101941.66;3550789;40;20049;-49
2021/04/15 06:23:16;;;;;;;8.90;4.13;;;;;;;4.30;74.47;101941.22;3553072;40;20422;-50
2021/04/15 06:25:46;;;;;;;5.63;3.33;;;;;;;4.33;75.27;101942.28;3553017;40;20060;-52
2021/04/15 06:28:24;;;;;;;6.43;3.13;;;;;;;4.62;74.95;101945.13;3552241;40;20101;-48
2021/04/15 06:31:20;;;;;;;6.47;3.42;;;;;;;4.40;74.18;101942.75;3552743;40;20096;-52
2021/04/15 06:33:48;;;;;;;7.70;3.63;;;;;;;4.72;73.39;101943.34;3552963;40;20056;-50
2021/04/15 06:36:35;;;;;;;9.30;3.25;;;;;;;4.82;72.32;101939.78;3551977;40;20624;-48
2021/04/15 06:39:38;;;;;;;6.20;2.95;;;;;;;4.75;71.45;101935.91;3552411;40;20109;-51
2021/04/15 06:42:27;;;;;;;4.97;3.42;;;;;;;4.81;71.36;101940.56;3552873;40;20041;-51
2021/04/15 06:45:10;;;;;;;6.85;3.40;;;;;;;5.08;69.78;101939.91;3552504;40;20404;-49
2021/04/15 06:47:46;;;;;;;9.05;3.38;;;;;;;5.29;70.08;101937.03;3551751;40;20463;-50
2021/04/15 06:50:49;;;;;;;9.30;3.20;;;;;;;5.39;69.42;101939.41;3551827;40;20084;-54
2021/04/15 06:53:37;;;;;;;5.43;3.25;;;;;;;5.17;69.44;101942.16;3550661;40;20061;-48
2021/04/15 06:56:24;;;;;;;5.03;2.90;;;;;;;5.78;68.22;101935.19;3552854;40;20041;-50
2021/04/15 06:59:35;;;;;;;3.85;2.53;;;;;;;5.26;68.88;101937.69;3552404;40;20050;-48
2021/04/15 07:02:28;;;;;;;6.00;3.05;;;;;;;5.87;65.32;101926.50;3552936;40;20056;-48
2021/04/15 07:05:18;;;;;;;4.00;2.60;;;;;;;5.88;65.37;101938.44;3552469;40;20048;-48
2021/04/15 07:08:01;;;;;;;4.82;2.15;;;;;;;5.97;64.67;101932.22;3557781;40;20097;-54
2021/04/15 07:10:59;;;;;;;7.00;2.88;;;;;;;6.15;63.73;101924.84;3560023;40;20078;-53
2021/04/15 07:14:03;;;;;;;3.67;2.03;;;;;;;6.29;64.08;101927.50;3555005;40;20042;-51
2021/04/15 07:17:09;;;;;;;4.72;2.25;;;;;;;6.22;62.60;101929.56;3554902;40;20411;-47
2021/04/15 07:19:45;;;;;;;3.63;2.13;;;;;;;6.58;60.56;101924.22;3553668;40;20029;-49
2021/04/15 07:22:12;;;;;;;4.43;2.00;;;;;;;6.66;61.70;101932.34;3554455;40;20041;-51
2021/04/15 07:25:06;;;;;;;2.85;1.80;;;;;;;6.38;61.31;101932.28;3554930;40;20080;-47
2021/04/15 07:27:39;;;;;;;8.05;2.30;;;;;;;6.71;60.81;101928.41;3553417;40;20081;-48
2021/04/15 07:30:13;;;;;;;3.70;1.77;;;;;;;6.58;61.17;101933.53;3555239;40;20068;-47
2021/04/15 07:33:12;;;;;;;4.10;1.45;;;;;;;6.90;61.00;101935.50;3553474;40;20061;-48
2021/04/15 07:36:13;;;;;;;4.03;1.85;;;;;;;6.80;59.65;101934.06;3552077;40;20400;-50
2021/04/15 07:39:01;;;;;;;5.13;2.00;;;;;;;7.15;59.95;101940.38;3556581;40;20056;-54
2021/04/15 07:41:45;;;;;;;2.05;1.70;;;;;;;7.81;58.56;101944.19;3552278;40;20515;-53
2021/04/15 07:44:15;;;;;;;5.22;1.90;;;;;;;7.66;57.94;101941.66;3554958;40;20058;-54
2021/04/15 07:46:55;;;;;;;6.63;1.60;;;;;;;7.89;56.63;101940.41;3555130;40;20069;-50
2021/04/15 07:49:48;;;;;;;3.75;1.75;;;;;;;7.85;56.32;101935.94;3549608;40;20058;-51
2021/04/15 07:52:59;;;;;;;2.65;1.27;;;;;;;7.88;56.28;101941.22;3550869;40;20166;-52
2021/04/15 07:56:05;;;;;;;1.85;1.30;;;;;;;8.03;55.07;101942.06;3553928;40;20562;-49
2021/04/15 07:59:07;;;;;;;6.10;1.90;;;;;;;8.15;54.62;101940.22;3549006;40;20082;-53
2021/04/15 08:01:46;;;;;;;13.55;4.60;;;;;;;7.74;54.89;101942.09;3553265;40;20060;-55
2021/04/15 08:04:31;;;;;;;4.55;1.90;;;;;;;7.48;55.22;101944.03;3551859;40;20100;-48
2021/04/15 08:07:04;;;;;;;3.45;1.70;;;;;;;7.49;54.81;101934.69;3551883;40;20053;-50
2021/04/15 08:09:45;;;;;;;4.93;1.92;;;;;;;7.95;53.33;101948.44;3552635;40;20080;-50
2021/04/15 08:12:33;;;;;;;3.35;1.30;;;;;;;8.17;53.20;101947.94;3552501;40;20038;-52
2021/04/15 08:14:59;;;;;;;2.67;1.38;;;;;;;8.23;52.79;101950.84;3552319;40;20042;-50
2021/04/15 08:18:03;;;;;;;3.97;1.25;;;;;;;7.80;53.86;101955.19;3553214;40;20074;-50
2021/04/15 08:20:45;;;;;;;3.45;1.33;;;;;;;7.35;55.55;101952.63;3550777;40;20053;-53
2021/04/15 08:23:21;;;;;;;3.38;1.75;;;;;;;7.93;54.31;101954.22;3552885;40;20081;-49
2021/04/15 08:26:13;;;;;;;3.70;0.95;;;;;;;8.48;53.33;101944.56;3552212;40;20053;-47
2021/04/15 08:28:50;;;;;;;3.08;1.33;;;;;;;7.98;54.12;101955.38;3552643;40;20141;-52
2021/04/15 08:31:46;;;;;;;5.38;1.83;;;;;;;7.87;55.80;101957.31;3552922;40;20344;-48
2021/04/15 08:34:39;;;;;;;2.97;1.70;;;;;;;8.01;55.67;101946.22;3549353;40;20191;-49
2021/04/15 08:37:33;;;;;;;2.90;1.60;;;;;;;7.60;55.08;101933.66;3554368;40;20052;-48
2021/04/15 08:40:26;;;;;;;3.58;2.00;;;;;;;8.13;54.91;101941.81;3551640;40;20116;-53
2021/04/15 08:42:59;;;;;;;2.75;1.67;;;;;;;8.85;52.53;101950.84;3553036;40;20045;-53
2021/04/15 08:45:58;;;;;;;3.55;1.70;;;;;;;8.52;53.47;101946.50;3551189;40;20569;-51
2021/04/15 08:48:38;;;;;;;3.05;1.40;;;;;;;7.87;54.72;101945.44;3553006;40;20057;-52
2021/04/15 08:51:44;;;;;;;3.50;1.63;;;;;;;8.63;53.45;101950.50;3553643;40;20389;-55
2021/04/15 08:55:08;;;;;;;4.18;1.33;;;;;;;9.10;52.03;101942.78;3552628;40;20097;-49
2021/04/15 08:57:53;;;;;;;3.08;1.30;;;;;;;9.31;52.60;101937.00;3548647;40;20045;-52
2021/04/15 09:00:32;;;;;;;4.70;1.13;;;;;;;9.01;50.21;101944.84;3551014;40;20054;-48
2021/04/15 09:03:17;;;;;;;1.42;0.93;;;;;;;9.37;49.73;101937.31;3551200;40;20124;-49
2021/04/15 09:06:24;;;;;;;2.47;0.90;;;;;;;9.32;48.46;101949.88;3550628;40;20078;-52
2021/04/15 09:09:08;;;;;;;1.97;0.60;;;;;;;9.16;45.05;101937.13;3553698;40;20062;-45
2021/04/15 09:11:47;;;;;;;1.10;0.60;;;;;;;9.31;46.21;101942.13;3554281;40;20273;-44
2021/04/15 09:14:53;;;;;;;0.55;0.50;;;;;;;9.55;45.24;101943.34;3550407;40;20073;-44
2021/04/15 09:17:51;;;;;;;1.00;0.50;;;;;;;9.48;45.18;101936.19;3548077;40;20151;-51
2021/04/15 09:20:55;;;;;;;1.35;0.47;;;;;;;9.48;43.70;101938.75;3552117;40;20069;-48
2021/04/15 09:23:31;;;;;;;0.80;0.45;;;;;;;9.90;42.30;101936.56;3552494;40;20566;-44
2021/04/15 09:26:23;;;;;;;4.10;0.60;;;;;;;10.39;42.53;101934.63;3553150;40;20458;-48
2021/04/15 09:29:17;;;;;;;1.40;0.68;;;;;;;10.49;40.19;101935.06;3553286;40;20136;-46
2021/04/15 09:31:55;;;;;;;1.75;0.55;;;;;;;10.41;40.49;101943.28;3553827;40;20053;-48
2021/04/15 09:34:27;;;;;;;1.38;0.50;;;;;;;10.42;40.42;101929.66;3552857;40;20148;-47
2021/04/15 09:37:16;;;;;;;0.75;0.47;;;;;;;10.38;41.47;101940.56;3551762;40;20128;-48
2021/04/15 09:39:56;;;;;;;4.45;0.95;;;;;;;10.90;40.60;101936.94;3551843;40;20060;-51
2021/04/15 09:42:50;;;;;;;1.80;0.45;;;;;;;10.25;40.65;101935.69;3548830;40;20409;-49
2021/04/15 09:45:52;;;;;;;1.30;0.60;;;;;;;10.49;40.16;101937.63;3552071;40;20731;-48
2021/04/15 09:48:45;;;;;;;1.20;0.50;;;;;;;10.54;39.99;101933.59;3550835;40;20170;-49
2021/04/15 09:51:21;;;;;;;2.75;0.60;;;;;;;10.73;40.62;101931.06;3552091;40;20419;-46
2021/04/15 09:54:08;;;;;;;;;;;;;;;10.68;41.04;101936.00;3553903;40;20720;-49
2021/04/15 09:56:47;;;;;;;3.78;0.70;;;;;;;9.91;42.22;101938.28;3551421;40;19981;-48
2021/04/15 09:59:27;;;;;;;1.20;0.40;;;;;;;10.71;41.74;101933.56;3550764;40;20062;-48
2021/04/15 10:02:16;;;;;;;2.17;0.60;;;;;;;9.83;42.18;101930.25;3553355;40;20026;-48
2021/04/15 10:05:05;;;;;;;0.65;0.60;;;;;;;9.88;43.08;101943.25;3553706;40;20163;-49
2021/04/15 10:07:41;;;;;;;1.40;0.50;;;;;;;9.71;42.90;101945.00;3551244;40;20037;-49
2021/04/15 10:10:20;;;;;;;0.98;0.60;;;;;;;9.21;45.40;101953.56;3551138;40;20069;-50
2021/04/15 10:13:07;;;;;;;0.55;0.38;;;;;;;9.81;43.31;101938.66;3550207;40;20061;-47
2021/04/15 10:15:55;;;;;;;2.97;0.73;;;;;;;9.60;43.38;101934.22;3555601;40;20641;-51
2021/04/15 10:18:50;;;;;;;1.83;0.52;;;;;;;9.82;42.81;101930.19;3557521;40;20049;-47
2021/04/15 10:21:55;;;;;;;2.63;0.50;;;;;;;10.02;41.41;101926.88;3554947;40;20093;-44
2021/04/15 10:24:26;;;;;;;1.90;0.30;;;;;;;8.90;39.98;101933.19;3552478;40;20056;-43
2021/04/15 10:27:20;;;;;;;3.35;0.40;;;;;;;10.04;38.95;101937.22;3553368;40;20042;-48
2021/04/15 10:30:15;;;;;;;2.30;0.30;;;;;;;9.61;39.21;101935.09;3551530;40;20057;-42
2021/04/15 10:33:01;;;;;;;0.68;0.43;;;;;;;9.37;38.33;101934.75;3551325;40;20317;-47
2021/04/15 10:36:06;;;;;;;1.38;0.30;;;;;;;10.00;38.98;101935.31;3553172;40;20140;-46
2021/04/15 10:38:51;;;;;;;1.67;0.43;;;;;;;9.63;37.60;101929.28;3553312;40;20049;-47
2021/04/15 10:41:55;;;;;;;4.38;0.50;;;;;;;9.39;38.31;101926.38;3550259;40;20054;-45
2021/04/15 10:44:51;;;;;;;1.60;0.25;;;;;;;9.77;38.81;101923.97;3552006;40;20060;-46
2021/04/15 10:47:26;;;;;;;0.80;0.30;;;;;;;9.43;39.05;101928.28;3553325;40;20054;-43
2021/04/15 10:50:14;;;;;;;0.28;0.28;;;;;;;9.77;38.68;101923.97;3553043;40;20048;-46
2021/04/15 10:52:47;;;;;;;1.05;0.35;;;;;;;9.86;37.89;101920.16;3553269;40;20108;-41
2021/04/15 10:55:40;;;;;;;0.63;0.30;;;;;;;10.53;35.98;101921.59;3551631;40;20057;-46
2021/04/15 10:58:34;;;;;;;0.52;0.20;;;;;;;10.25;37.10;101930.56;3555548;40;20048;-50
2021/04/15 11:01:21;;;;;;;1.45;0.60;;;;;;;10.14;36.57;101921.47;3555214;40;20058;-48
2021/04/15 11:03:48;;;;;;;1.90;0.28;;;;;;;9.99;36.11;101911.41;3555247;40;20050;-46
2021/04/15 11:06:58;;;;;;;2.88;0.45;;;;;;;9.90;37.08;101916.97;3553395;40;20102;-42
2021/04/15 11:09:27;;;;;;;0.28;0.20;;;;;;;10.63;37.36;101918.63;3560341;40;20402;-44
2021/04/15 11:12:07;;;;;;;0.80;0.47;;;;;;;10.00;37.21;101917.41;3560954;40;20061;-41
2021/04/15 11:15:08;;;;;;;1.77;0.30;;;;;;;10.49;37.21;101912.00;3557040;40;20062;-41
2021/04/15 11:17:43;;;;;;;0.90;0.50;;;;;;;10.86;34.41;101912.88;3554681;40;20659;-43
2021/04/15 11:20:31;;;;;;;0.93;0.30;;;;;;;10.88;35.46;101916.38;3553284;40;20082;-46
2021/04/15 11:23:02;;;;;;;0.55;0.30;;;;;;;11.32;34.53;101908.84;3552375;40;20046;-47
2021/04/15 11:25:34;;;;;;;1.20;0.50;;;;;;;10.39;35.31;101905.59;3553904;40;20779;-43
2021/04/15 11:28:27;;;;;;;2.45;0.50;;;;;;;10.67;36.38;101910.28;3554125;40;20155;-41
2021/04/15 11:31:15;;;;;;;0.85;0.30;;;;;;;11.04;34.52;101889.72;3552906;40;20149;-45
2021/04/15 11:33:49;;;;;;;2.92;0.40;;;;;;;11.03;34.94;101894.78;3552338;40;20049;-42
2021/04/15 11:36:24;;;;;;;2.38;0.50;;;;;;;11.05;33.70;101896.63;3551291;40;20297;-45
2021/04/15 11:39:07;;;;;;;4.00;0.50;;;;;;;11.43;35.07;101895.66;3552354;40;20446;-45
2021/04/15 11:41:45;;;;;;;0.60;0.30;;;;;;;10.40;35.69;101887.78;3553455;40;20156;-41
2021/04/15 11:44:23;;;;;;;1.88;0.60;;;;;;;10.77;36.71;101880.81;3553600;40;20081;-42
2021/04/15 11:46:54;;;;;;;1.98;0.55;;;;;;;10.20;36.62;101884.22;3553270;40;20157;-43
2021/04/15 11:49:29;;;;;;;2.78;0.50;;;;;;;10.82;37.11;101885.38;3552566;40;20046;-51
2021/04/15 11:52:02;;;;;;;2.13;0.50;;;;;;;10.63;35.98;101898.16;3553064;40;20041;-48
2021/04/15 11:54:36;;;;;;;0.90;0.40;;;;;;;9.91;36.50;101895.69;3552942;40;20046;-49
2021/04/15 11:57:19;;;;;;;0.57;0.38;;;;;;;10.63;36.56;101888.81;3552281;40;20046;-44
2021/04/15 12:00:00;;;;;;;1.20;0.30;;;;;;;10.41;36.98;101889.50;3551723;40;20065;-43
2021/04/15 12:02:37;;;;;;;2.47;0.50;;;;;;;9.78;37.80;101888.22;3551926;40;20459;-43
2021/04/15 12:05:27;;;;;;;0.50;0.35;;;;;;;10.50;37.25;101891.63;3553707;40;20060;-40
2021/04/15 12:07:59;;;;;;;1.90;0.52;;;;;;;10.12;39.47;101892.34;3551314;40;20052;-48
2021/04/15 12:10:30;;;;;;;2.45;0.40;;;;;;;9.65;40.20;101881.63;3552233;40;20045;-50
2021/04/15 12:13:04;;;;;;;3.17;0.88;;;;;;;9.28;42.99;101886.59;3552372;40;20050;-43
2021/04/15 12:15:38;;;;;;;1.13;0.40;;;;;;;9.70;40.96;101877.59;3553595;40;20137;-42
2021/04/15 12:18:25;;;;;;;1.02;0.68;;;;;;;9.63;41.27;101890.03;3553626;40;20049;-43
2021/04/15 12:21:08;;;;;;;1.05;0.43;;;;;;;9.36;40.05;101885.31;3554062;40;20050;-47
2021/04/15 12:23:44;;;;;;;1.23;0.60;;;;;;;9.51;41.27;101877.50;3552934;40;20747;-45
2021/04/15 12:26:58;;;;;;;2.08;0.60;;;;;;;9.81;41.94;101875.56;3552906;40;20097;-44
2021/04/15 12:29:31;;;;;;;1.48;0.50;;;;;;;9.27;41.84;101869.53;3552833;40;20074;-43
2021/04/15 12:32:20;;;;;;;2.95;0.60;;;;;;;9.41;43.88;101871.06;3558606;40;20049;-44
2021/04/15 12:35:10;;;;;;;1.17;0.60;;;;;;;9.93;41.49;101865.91;3551572;40;20367;-45